sensor_id;sensor_type;location;lat;lon;timestamp;pressure;altitude;pressure_sealevel;temperature;humidity
69524;BME280;56723;42.694;23.286;2022-09-01T00:01:23;94894.19;;;16.93;93.79
69524;BME280;56723;42.694;23.286;2022-09-01T00:03:53;94893.78;;;16.89;93.55
69524;BME280;56723;42.694;23.286;2022-09-01T00:06:22;94887.53;;;16.97;93.06
69524;BME280;56723;42.694;23.286;2022-09-01T00:08:52;94889.75;;;17.00;92.10
69524;BME280;56723;42.694;23.286;2022-09-01T00:11:21;94882.53;;;16.89;91.48
69524;BME280;56723;42.694;23.286;2022-09-01T00:13:49;94879.13;;;16.82;92.00
69524;BME280;56723;42.694;23.286;2022-09-01T00:16:17;94881.78;;;16.75;92.79
69524;BME280;56723;42.694;23.286;2022-09-01T00:18:48;94877.34;;;16.76;92.79
69524;BME280;56723;42.694;23.286;2022-09-01T00:21:28;94862.47;;;16.56;93.89
69524;BME280;56723;42.694;23.286;2022-09-01T00:23:56;94875.38;;;16.45;95.17
69524;BME280;56723;42.694;23.286;2022-09-01T00:26:23;94870.56;;;16.35;99.05
69524;BME280;56723;42.694;23.286;2022-09-01T00:28:50;94876.22;;;16.25;100.00
69524;BME280;56723;42.694;23.286;2022-09-01T00:31:17;94881.28;;;16.14;100.00
69524;BME280;56723;42.694;23.286;2022-09-01T00:33:47;94885.09;;;16.11;100.00
69524;BME280;56723;42.694;23.286;2022-09-01T00:36:15;94880.28;;;16.08;100.00
69524;BME280;56723;42.694;23.286;2022-09-01T00:38:43;94872.44;;;16.08;100.00
69524;BME280;56723;42.694;23.286;2022-09-01T00:41:11;94880.28;;;16.08;100.00
69524;BME280;56723;42.694;23.286;2022-09-01T00:43:48;94895.16;;;16.08;100.00
69524;BME280;56723;42.694;23.286;2022-09-01T00:46:28;94889.91;;;16.08;100.00
69524;BME280;56723;42.694;23.286;2022-09-01T00:49:01;94889.31;;;16.12;100.00
69524;BME280;56723;42.694;23.286;2022-09-01T00:51:30;94889.91;;;16.14;100.00
69524;BME280;56723;42.694;23.286;2022-09-01T00:53:59;94894.72;;;16.17;100.00
69524;BME280;56723;42.694;23.286;2022-09-01T00:56:28;94900.56;;;16.26;100.00
69524;BME280;56723;42.694;23.286;2022-09-01T00:58:56;94891.09;;;16.18;100.00
69524;BME280;56723;42.694;23.286;2022-09-01T01:01:23;94895.94;;;16.08;100.00
69524;BME280;56723;42.694;23.286;2022-09-01T01:03:50;94912.22;;;15.97;100.00
69524;BME280;56723;42.694;23.286;2022-09-01T01:06:18;94898.34;;;15.83;100.00
69524;BME280;56723;42.694;23.286;2022-09-01T01:08:49;94903.97;;;15.87;100.00
69524;BME280;56723;42.694;23.286;2022-09-01T01:11:26;94910.41;;;15.78;100.00
69524;BME280;56723;42.694;23.286;2022-09-01T01:14:03;94903.56;;;15.64;100.00
69524;BME280;56723;42.694;23.286;2022-09-01T01:16:43;94886.22;;;15.43;100.00
69524;BME280;56723;42.694;23.286;2022-09-01T01:25:38;94890.63;;;15.42;100.00
69524;BME280;56723;42.694;23.286;2022-09-01T01:28:20;94895.44;;;15.45;100.00
69524;BME280;56723;42.694;23.286;2022-09-01T01:30:54;94896.88;;;15.48;100.00
69524;BME280;56723;42.694;23.286;2022-09-01T01:33:31;94896.91;;;15.54;100.00
69524;BME280;56723;42.694;23.286;2022-09-01T01:35:59;94897.09;;;15.59;100.00
69524;BME280;56723;42.694;23.286;2022-09-01T01:38:28;94895.72;;;15.64;100.00
69524;BME280;56723;42.694;23.286;2022-09-01T01:40:57;94898.75;;;15.67;100.00
69524;BME280;56723;42.694;23.286;2022-09-01T01:43:24;94893.91;;;15.64;100.00
69524;BME280;56723;42.694;23.286;2022-09-01T01:45:54;94905.16;;;15.65;100.00
69524;BME280;56723;42.694;23.286;2022-09-01T01:48:29;94907.56;;;15.66;100.00
69524;BME280;56723;42.694;23.286;2022-09-01T01:51:00;94914.00;;;15.64;100.00
69524;BME280;56723;42.694;23.286;2022-09-01T01:53:28;94915.41;;;15.66;100.00
69524;BME280;56723;42.694;23.286;2022-09-01T01:55:56;94911.19;;;15.58;100.00
69524;BME280;56723;42.694;23.286;2022-09-01T01:58:28;94918.22;;;15.58;100.00
69524;BME280;56723;42.694;23.286;2022-09-01T02:00:56;94918.75;;;15.47;100.00
69524;BME280;56723;42.694;23.286;2022-09-01T02:03:26;94924.75;;;15.41;100.00
69524;BME280;56723;42.694;23.286;2022-09-01T02:05:56;94931.41;;;15.37;100.00
69524;BME280;56723;42.694;23.286;2022-09-01T02:08:26;94933.59;;;15.33;100.00
69524;BME280;56723;42.694;23.286;2022-09-01T02:10:54;94928.34;;;15.27;100.00
69524;BME280;56723;42.694;23.286;2022-09-01T02:13:23;94918.28;;;15.17;100.00
69524;BME280;56723;42.694;23.286;2022-09-01T02:16:00;94920.28;;;15.21;100.00
69524;BME280;56723;42.694;23.286;2022-09-01T02:18:36;94925.53;;;15.28;100.00
69524;BME280;56723;42.694;23.286;2022-09-01T02:21:05;94929.56;;;15.31;100.00
69524;BME280;56723;42.694;23.286;2022-09-01T02:23:46;94926.38;;;15.35;100.00
69524;BME280;56723;42.694;23.286;2022-09-01T02:26:14;94925.94;;;15.32;100.00
69524;BME280;56723;42.694;23.286;2022-09-01T02:28:47;94922.31;;;15.26;100.00
69524;BME280;56723;42.694;23.286;2022-09-01T02:31:25;94922.69;;;15.23;100.00
69524;BME280;56723;42.694;23.286;2022-09-01T02:33:56;94925.53;;;15.28;100.00
69524;BME280;56723;42.694;23.286;2022-09-01T02:36:24;94912.09;;;15.31;100.00
69524;BME280;56723;42.694;23.286;2022-09-01T02:38:53;94915.13;;;15.41;100.00
69524;BME280;56723;42.694;23.286;2022-09-01T02:41:22;94908.91;;;15.42;100.00
69524;BME280;56723;42.694;23.286;2022-09-01T02:43:51;94912.13;;;15.44;100.00
69524;BME280;56723;42.694;23.286;2022-09-01T02:46:20;94898.44;;;15.42;100.00
69524;BME280;56723;42.694;23.286;2022-09-01T02:48:51;94911.13;;;15.45;100.00
69524;BME280;56723;42.694;23.286;2022-09-01T02:51:22;94905.13;;;15.51;100.00
69524;BME280;56723;42.694;23.286;2022-09-01T02:53:52;94908.34;;;15.53;100.00
69524;BME280;56723;42.694;23.286;2022-09-01T02:56:23;94905.50;;;15.48;100.00
69524;BME280;56723;42.694;23.286;2022-09-01T02:58:53;94902.69;;;15.43;100.00
69524;BME280;56723;42.694;23.286;2022-09-01T03:01:27;94907.91;;;15.37;100.00
69524;BME280;56723;42.694;23.286;2022-09-01T03:04:02;94893.44;;;15.34;100.00
69524;BME280;56723;42.694;23.286;2022-09-01T03:06:31;94909.28;;;15.33;100.00
69524;BME280;56723;42.694;23.286;2022-09-01T03:09:01;94909.84;;;15.21;100.00
69524;BME280;56723;42.694;23.286;2022-09-01T03:11:31;94917.06;;;15.13;100.00
69524;BME280;56723;42.694;23.286;2022-09-01T03:14:00;94908.19;;;15.01;100.00
69524;BME280;56723;42.694;23.286;2022-09-01T03:16:27;94904.97;;;14.99;100.00
69524;BME280;56723;42.694;23.286;2022-09-01T03:18:59;94892.06;;;14.84;100.00
69524;BME280;56723;42.694;23.286;2022-09-01T03:21:29;94896.84;;;14.80;100.00
69524;BME280;56723;42.694;23.286;2022-09-01T03:23:58;94901.28;;;14.80;100.00
69524;BME280;56723;42.694;23.286;2022-09-01T03:26:29;94899.63;;;14.72;100.00
69524;BME280;56723;42.694;23.286;2022-09-01T03:28:57;94906.41;;;14.67;100.00
69524;BME280;56723;42.694;23.286;2022-09-01T03:31:25;94919.66;;;14.65;100.00
69524;BME280;56723;42.694;23.286;2022-09-01T03:33:59;94916.00;;;14.60;100.00
69524;BME280;56723;42.694;23.286;2022-09-01T03:36:30;94917.19;;;14.57;100.00
69524;BME280;56723;42.694;23.286;2022-09-01T03:38:59;94905.00;;;14.64;100.00
69524;BME280;56723;42.694;23.286;2022-09-01T03:41:28;94914.88;;;14.75;100.00
69524;BME280;56723;42.694;23.286;2022-09-01T03:43:57;94909.28;;;14.78;100.00
69524;BME280;56723;42.694;23.286;2022-09-01T03:46:28;94920.09;;;14.75;100.00
69524;BME280;56723;42.694;23.286;2022-09-01T03:49:03;94912.94;;;14.84;100.00
69524;BME280;56723;42.694;23.286;2022-09-01T03:51:35;94910.50;;;14.82;100.00
69524;BME280;56723;42.694;23.286;2022-09-01T03:54:06;94916.91;;;14.80;100.00
69524;BME280;56723;42.694;23.286;2022-09-01T03:56:34;94908.00;;;14.68;100.00
69524;BME280;56723;42.694;23.286;2022-09-01T03:59:01;94918.81;;;14.58;100.00
69524;BME280;56723;42.694;23.286;2022-09-01T04:01:29;94923.34;;;14.43;100.00
69524;BME280;56723;42.694;23.286;2022-09-01T04:04:04;94921.59;;;14.29;100.00
69524;BME280;56723;42.694;23.286;2022-09-01T04:06:33;94925.47;;;14.11;100.00
69524;BME280;56723;42.694;23.286;2022-09-01T04:09:02;94919.91;;;13.93;100.00
69524;BME280;56723;42.694;23.286;2022-09-01T04:11:31;94923.84;;;13.82;100.00
69524;BME280;56723;42.694;23.286;2022-09-01T04:14:00;94929.75;;;13.70;100.00
69524;BME280;56723;42.694;23.286;2022-09-01T04:16:32;94924.19;;;13.58;100.00
69524;BME280;56723;42.694;23.286;2022-09-01T04:19:22;94919.38;;;13.55;100.00
69524;BME280;56723;42.694;23.286;2022-09-01T04:21:57;94914.59;;;13.59;100.00
69524;BME280;56723;42.694;23.286;2022-09-01T04:24:47;94920.94;;;13.71;100.00
69524;BME280;56723;42.694;23.286;2022-09-01T04:27:15;94919.19;;;13.78;100.00
69524;BME280;56723;42.694;23.286;2022-09-01T04:29:44;94911.44;;;13.84;100.00
69524;BME280;56723;42.694;23.286;2022-09-01T04:32:14;94916.22;;;13.81;100.00
69524;BME280;56723;42.694;23.286;2022-09-01T04:34:48;94915.41;;;13.80;100.00
69524;BME280;56723;42.694;23.286;2022-09-01T04:37:20;94918.19;;;13.79;100.00
69524;BME280;56723;42.694;23.286;2022-09-01T04:40:06;94915.72;;;13.71;100.00
69524;BME280;56723;42.694;23.286;2022-09-01T04:42:33;94913.06;;;13.64;100.00
69524;BME280;56723;42.694;23.286;2022-09-01T04:45:02;94910.25;;;13.66;100.00
